Time;durP1;ratioP1;P1;durP2;ratioP2;P2;SDS_P1;SDS_P2;PMS_P1;PMS_P2;Temp;Humidity;BMP_temperature;BMP_pressure;BME280_temperature;BME280_humidity;BME280_pressure;Samples;Min_cycle;Max_cycle;Signal;HPM_P1;HPM_P2
2021/04/29 00:00:17;;;;;;;;;;;;;;;7.66;47.34;100591.61;1790580;79;20203;-60
2021/04/29 00:06:04;;;;;;;;;;;;;;;7.60;47.39;100599.05;1774785;80;20159;-61
2021/04/29 00:08:34;;;;;;;;;;;;;;;7.58;47.57;100595.73;1765958;80;20247;-63
2021/04/29 00:11:09;;;;;;;;;;;;;;;7.61;47.78;100595.34;1835903;77;20701;-60
2021/04/29 00:13:38;;;;;;;;;;;;;;;7.54;47.96;100593.97;1831811;77;20170;-59
2021/04/29 00:16:06;;;;;;;;;;;;;;;7.53;48.12;100590.98;1836682;77;21207;-60
2021/04/29 00:18:34;;;;;;;;;;;;;;;7.52;48.11;100594.66;1835875;77;20120;-60
2021/04/29 00:21:02;;;;;;;;;;;;;;;7.49;48.08;100591.89;1835137;77;20241;-60
2021/04/29 00:23:30;;;;;;;;;;;;;;;7.48;48.22;100590.72;1833857;77;20153;-60
2021/04/29 00:25:58;;;;;;;;;;;;;;;7.45;48.86;100592.44;1839907;77;20131;-59
2021/04/29 00:28:26;;;;;;;;;;;;;;;7.43;49.19;100594.48;1837771;77;21134;-60
2021/04/29 00:30:54;;;;;;;;;;;;;;;7.39;50.00;100591.39;1836460;77;20286;-60
2021/04/29 00:33:22;;;;;;;;;;;;;;;7.38;50.49;100587.06;1836597;77;20127;-59
2021/04/29 00:35:50;;;;;;;;;;;;;;;7.34;50.47;100587.94;1804958;77;21047;-59
2021/04/29 00:38:18;;;;;;;;;;;;;;;7.30;50.16;100588.52;1836653;77;20484;-59
2021/04/29 00:40:46;;;;;;;;;;;;;;;7.24;50.51;100591.42;1805766;77;21833;-59
2021/04/29 00:43:13;;;;;;;;;;;;;;;7.15;50.53;100592.06;1834965;77;20263;-60
2021/04/29 00:45:41;;;;;;;;;;;;;;;7.08;50.77;100589.02;1836698;77;20198;-59
2021/04/29 00:48:09;;;;;;;;;;;;;;;7.03;51.13;100591.44;1834524;77;20275;-60
2021/04/29 00:50:39;;;;;;;;;;;;;;;6.96;51.32;100590.88;1834146;77;20133;-60
2021/04/29 00:53:07;;;;;;;;;;;;;;;6.89;51.24;100589.13;1831935;77;21153;-59
2021/04/29 00:55:35;;;;;;;;;;;;;;;6.83;51.75;100594.69;1836816;77;20194;-60
2021/04/29 00:58:02;;;;;;;;;;;;;;;6.79;52.04;100589.44;1839857;77;20228;-60
2021/04/29 01:00:30;;;;;;;;;;;;;;;6.75;52.16;100590.31;1806720;77;20212;-61
2021/04/29 01:03:10;;;;;;;;;;;;;;;6.73;52.19;100589.69;1800706;77;20273;-61
2021/04/29 01:05:45;;;;;;;;;;;;;;;6.70;52.24;100591.39;1828264;77;21151;-60
2021/04/29 01:08:15;;;;;;;;;;;;;;;6.69;52.44;100592.91;1822318;78;20524;-60
2021/04/29 01:10:47;;;;;;;;;;;;;;;6.68;52.64;100590.73;1788759;78;20153;-62
2021/04/29 01:13:18;;;;;;;;;;;;;;;6.64;52.22;100591.62;1808879;78;20346;-60
2021/04/29 01:15:46;;;;;;;;;;;;;;;6.65;52.23;100593.78;1810226;78;20143;-61
2021/04/29 01:18:14;;;;;;;;;;;;;;;6.65;52.46;100589.78;1804418;78;21203;-60
2021/04/29 01:20:55;;;;;;;;;;;;;;;6.64;52.61;100592.11;1810010;78;20138;-59
2021/04/29 01:23:30;;;;;;;;;;;;;;;6.63;52.47;100587.30;1808529;78;20204;-60
2021/04/29 01:26:00;;;;;;;;;;;;;;;6.60;52.91;100581.54;1808394;78;20494;-59
2021/04/29 01:28:27;;;;;;;;;;;;;;;6.56;53.14;100585.58;1807686;78;20216;-60
2021/04/29 01:30:55;;;;;;;;;;;;;;;6.52;53.41;100575.78;1806938;78;21197;-59
2021/04/29 01:33:23;;;;;;;;;;;;;;;6.49;53.60;100578.83;1810508;78;20741;-61
2021/04/29 01:35:52;;;;;;;;;;;;;;;6.45;53.68;100578.91;1805655;78;20249;-60
2021/04/29 01:38:20;;;;;;;;;;;;;;;6.43;53.81;100576.91;1806931;78;20243;-60
2021/04/29 01:40:48;;;;;;;;;;;;;;;6.39;53.97;100580.46;1807824;78;20196;-61
2021/04/29 01:43:15;;;;;;;;;;;;;;;6.35;54.08;100572.52;1807648;78;21265;-60
2021/04/29 01:45:43;;;;;;;;;;;;;;;6.29;53.78;100572.75;1810761;78;20201;-60
2021/04/29 01:48:11;;;;;;;;;;;;;;;6.28;54.14;100575.59;1808503;78;20206;-60
2021/04/29 01:50:40;;;;;;;;;;;;;;;6.26;54.25;100567.80;1793812;78;20304;-59
2021/04/29 01:53:08;;;;;;;;;;;;;;;6.26;54.35;100572.30;1805208;78;20152;-60
2021/04/29 01:55:35;;;;;;;;;;;;;;;6.23;54.50;100570.02;1807614;78;21390;-62
2021/04/29 01:58:03;;;;;;;;;;;;;;;6.22;54.59;100572.34;1803819;78;20151;-61
2021/04/29 02:00:31;;;;;;;;;;;;;;;6.27;54.71;100574.78;1812668;78;20559;-60
2021/04/29 02:02:59;;;;;;;;;;;;;;;6.37;54.79;100577.14;1790970;78;20216;-60
2021/04/29 02:05:28;;;;;;;;;;;;;;;6.51;54.55;100578.63;1807585;78;20310;-60
2021/04/29 02:07:58;;;;;;;;;;;;;;;6.57;54.37;100577.41;1811840;78;21194;-59
2021/04/29 02:10:26;;;;;;;;;;;;;;;6.57;54.48;100579.25;1814834;78;20284;-60
2021/04/29 02:12:55;;;;;;;;;;;;;;;6.53;54.63;100577.45;1815332;78;20200;-60
2021/04/29 02:15:31;;;;;;;;;;;;;;;6.47;54.22;100584.34;1814593;78;20130;-59
2021/04/29 02:18:08;;;;;;;;;;;;;;;6.42;53.94;100584.09;1818651;78;20232;-62
2021/04/29 02:20:39;;;;;;;;;;;;;;;6.42;53.90;100584.57;1817403;78;21149;-60
2021/04/29 02:23:09;;;;;;;;;;;;;;;6.43;54.04;100582.23;1814643;78;20123;-60
2021/04/29 02:25:38;;;;;;;;;;;;;;;6.42;54.13;100588.08;1809929;78;20107;-60
2021/04/29 02:28:06;;;;;;;;;;;;;;;6.39;54.22;100588.94;1819268;78;20135;-60
2021/04/29 02:30:34;;;;;;;;;;;;;;;6.36;54.39;100587.49;1788581;78;20313;-59
2021/04/29 02:33:01;;;;;;;;;;;;;;;6.33;54.45;100586.53;1817691;78;21279;-58
2021/04/29 02:35:29;;;;;;;;;;;;;;;6.29;54.62;100586.58;1707266;83;20271;-60
2021/04/29 02:37:57;;;;;;;;;;;;;;;6.26;54.79;100582.44;1709749;84;20124;-59
2021/04/29 02:40:25;;;;;;;;;;;;;;;6.22;55.00;100590.47;1709965;84;20168;-60
2021/04/29 02:42:55;;;;;;;;;;;;;;;6.20;55.19;100587.66;1710335;83;20335;-60
2021/04/29 02:45:23;;;;;;;;;;;;;;;6.16;55.33;100586.40;1710124;84;21289;-59
2021/04/29 02:47:52;;;;;;;;;;;;;;;6.12;55.44;100588.10;1710100;84;20334;-60
2021/04/29 02:50:21;;;;;;;;;;;;;;;6.04;55.97;100586.03;1708989;84;20247;-60
2021/04/29 02:52:51;;;;;;;;;;;;;;;5.98;56.11;100586.73;1725551;78;20227;-61
2021/04/29 02:55:22;;;;;;;;;;;;;;;5.97;56.04;100583.26;1820277;78;20271;-60
2021/04/29 02:57:50;;;;;;;;;;;;;;;6.00;56.06;100584.22;1814800;78;22140;-59
2021/04/29 03:00:19;;;;;;;;;;;;;;;6.05;56.10;100588.51;1795349;78;20238;-61
2021/04/29 03:02:47;;;;;;;;;;;;;;;6.13;56.00;100584.92;1819365;78;20222;-61
2021/04/29 03:05:15;;;;;;;;;;;;;;;6.21;55.98;100585.33;1820462;78;20304;-60
2021/04/29 03:07:43;;;;;;;;;;;;;;;6.28;55.94;100580.92;1819292;78;20209;-59
2021/04/29 03:10:11;;;;;;;;;;;;;;;6.37;55.87;100582.98;1814871;78;21211;-61
2021/04/29 03:12:39;;;;;;;;;;;;;;;6.45;55.77;100581.56;1820106;78;20110;-61
2021/04/29 03:15:08;;;;;;;;;;;;;;;6.55;55.62;100574.59;1822276;78;20566;-60
2021/04/29 03:17:36;;;;;;;;;;;;;;;6.61;55.52;100581.84;1822497;78;20498;-60
2021/04/29 03:20:06;;;;;;;;;;;;;;;6.69;55.41;100584.41;1815832;78;20125;-61
2021/04/29 03:22:34;;;;;;;;;;;;;;;6.82;55.11;100581.89;1814429;78;21238;-60
2021/04/29 03:25:03;;;;;;;;;;;;;;;7.02;54.67;100579.94;1823997;78;20229;-59
2021/04/29 03:27:30;;;;;;;;;;;;;;;7.30;54.22;100584.52;1729105;82;20265;-60
2021/04/29 03:29:58;;;;;;;;;;;;;;;7.72;53.47;100588.16;1726955;82;20855;-60
2021/04/29 03:32:26;;;;;;;;;;;;;;;8.21;52.56;100584.56;1708714;82;20263;-60
2021/04/29 03:34:54;;;;;;;;;;;;;;;8.75;51.36;100580.31;1730467;82;22008;-59
2021/04/29 03:37:22;;;;;;;;;;;;;;;9.31;50.16;100585.59;1728246;82;20744;-61
2021/04/29 03:39:49;;;;;;;;;;;;;;;9.85;48.78;100587.23;1729752;82;20192;-63
2021/04/29 03:42:18;;;;;;;;;;;;;;;10.23;47.60;100586.54;1730646;82;20153;-60
2021/04/29 03:44:46;;;;;;;;;;;;;;;10.28;46.84;100592.60;1737852;79;20260;-60
2021/04/29 03:47:14;;;;;;;;;;;;;;;10.10;47.03;100596.77;1820561;78;21193;-60
2021/04/29 03:49:43;;;;;;;;;;;;;;;9.88;47.33;100590.83;1816661;78;20232;-62
2021/04/29 03:52:10;;;;;;;;;;;;;;;9.58;47.97;100593.91;1795428;78;20500;-59
2021/04/29 03:54:39;;;;;;;;;;;;;;;9.39;48.56;100596.07;1822329;78;20151;-60
2021/04/29 03:57:07;;;;;;;;;;;;;;;9.30;48.93;100596.78;1822427;78;20281;-59
2021/04/29 03:59:35;;;;;;;;;;;;;;;9.40;49.08;100595.05;1824084;78;22223;-60
2021/04/29 04:02:03;;;;;;;;;;;;;;;9.67;48.84;100599.07;1821861;78;20292;-60
2021/04/29 04:04:32;;;;;;;;;;;;;;;9.88;48.83;100596.18;1822421;78;20248;-58
2021/04/29 04:07:00;;;;;;;;;;;;;;;10.00;49.75;100599.86;1821126;78;20146;-58
2021/04/29 04:09:27;;;;;;;;;;;;;;;10.26;49.73;100606.70;1794387;78;20333;-59
2021/04/29 04:11:56;;;;;;;;;;;;;;;10.84;49.11;100608.08;1819789;78;21249;-58
2021/04/29 04:14:24;;;;;;;;;;;;;;;11.70;47.91;100602.34;1818705;78;20530;-56
2021/04/29 04:16:52;;;;;;;;;;;;;;;12.33;46.60;100603.22;1815841;78;20261;-56
2021/04/29 04:19:20;;;;;;;;;;;;;;;12.67;45.50;100600.95;1817656;78;20289;-58
2021/04/29 04:21:48;;;;;;;;;;;;;;;12.56;45.29;100598.52;1821257;78;20210;-56
2021/04/29 04:24:16;;;;;;;;;;;;;;;12.34;45.93;100598.16;1820288;78;21183;-58
2021/04/29 04:26:44;;;;;;;;;;;;;;;12.20;46.53;100602.83;1816640;78;20124;-57
2021/04/29 04:29:12;;;;;;;;;;;;;;;12.11;46.96;100602.30;1820382;78;20159;-58
2021/04/29 04:31:40;;;;;;;;;;;;;;;12.08;47.13;100601.41;1818906;78;20275;-57
2021/04/29 04:34:08;;;;;;;;;;;;;;;12.02;47.22;100595.58;1790139;78;20489;-56
2021/04/29 04:36:36;;;;;;;;;;;;;;;11.88;47.65;100597.03;1818179;78;21441;-57
2021/04/29 04:39:04;;;;;;;;;;;;;;;11.70;48.71;100601.00;1819111;78;20288;-57
2021/04/29 04:41:32;;;;;;;;;;;;;;;11.46;49.34;100610.17;1819325;78;20270;-59
2021/04/29 04:44:00;;;;;;;;;;;;;;;11.35;50.42;100605.50;1818611;78;20694;-57
2021/04/29 04:46:28;;;;;;;;;;;;;;;11.21;51.52;100610.14;1820966;78;20343;-58
2021/04/29 04:48:56;;;;;;;;;;;;;;;11.04;52.17;100607.98;1817706;78;21373;-58
2021/04/29 04:51:24;;;;;;;;;;;;;;;10.95;52.70;100606.56;1818216;78;20222;-57
2021/04/29 04:53:52;;;;;;;;;;;;;;;10.99;53.06;100612.34;1819092;78;20264;-61
2021/04/29 04:56:20;;;;;;;;;;;;;;;10.98;53.42;100610.69;1817749;78;20270;-58
2021/04/29 04:58:48;;;;;;;;;;;;;;;10.87;53.95;100614.34;1820529;78;20192;-60
2021/04/29 05:01:16;;;;;;;;;;;;;;;10.76;54.47;100611.52;1817575;78;21374;-59
2021/04/29 05:03:44;;;;;;;;;;;;;;;10.66;54.98;100611.46;1818458;78;20272;-62
2021/04/29 05:06:14;;;;;;;;;;;;;;;10.53;55.47;100619.56;1818894;78;20179;-61
2021/04/29 05:08:41;;;;;;;;;;;;;;;10.45;55.93;100617.09;1814324;78;20279;-60
2021/04/29 05:11:09;;;;;;;;;;;;;;;10.32;56.43;100620.59;1818811;78;20209;-60
2021/04/29 05:13:37;;;;;;;;;;;;;;;10.17;56.86;100618.16;1790185;78;21255;-60
2021/04/29 05:16:05;;;;;;;;;;;;;;;10.08;57.21;100618.09;1789393;78;20280;-59
2021/04/29 05:18:33;;;;;;;;;;;;;;;9.97;57.46;100616.87;1819004;78;20209;-59
2021/04/29 05:21:01;;;;;;;;;;;;;;;9.94;57.73;100618.11;1818066;78;20300;-57
2021/04/29 05:23:29;;;;;;;;;;;;;;;9.90;57.82;100618.73;1817592;78;20177;-63
2021/04/29 05:25:56;;;;;;;;;;;;;;;9.86;57.92;100618.31;1818486;78;21284;-59
2021/04/29 05:28:24;;;;;;;;;;;;;;;9.84;57.86;100620.91;1791771;78;20118;-60
2021/04/29 05:30:52;;;;;;;;;;;;;;;9.85;57.60;100622.53;1818543;78;20593;-59
2021/04/29 05:33:20;;;;;;;;;;;;;;;9.83;57.65;100618.72;1816583;78;21079;-59
2021/04/29 05:35:49;;;;;;;;;;;;;;;9.77;57.87;100616.36;1817820;78;20225;-61
2021/04/29 05:38:17;;;;;;;;;;;;;;;9.76;58.14;100625.44;1819532;78;22005;-61
2021/04/29 05:40:45;;;;;;;;;;;;;;;9.76;58.15;100624.59;1819057;78;20535;-60
2021/04/29 05:43:13;;;;;;;;;;;;;;;9.76;58.18;100624.09;1818035;78;20153;-59
2021/04/29 05:45:41;;;;;;;;;;;;;;;9.78;57.84;100622.55;1791235;78;21386;-60
2021/04/29 05:48:09;;;;;;;;;;;;;;;9.78;57.54;100622.55;1818363;78;20228;-61
2021/04/29 05:50:37;;;;;;;;;;;;;;;9.80;57.46;100619.14;1821510;78;21252;-59
2021/04/29 05:53:05;;;;;;;;;;;;;;;9.80;56.74;100618.64;1819420;78;20591;-59
2021/04/29 05:55:34;;;;;;;;;;;;;;;9.82;56.01;100620.59;1819343;78;20253;-60
2021/04/29 05:58:02;;;;;;;;;;;;;;;9.84;55.09;100631.62;1819306;78;20192;-60
2021/04/29 06:00:30;;;;;;;;;;;;;;;9.87;54.39;100625.84;1817220;78;20526;-60
2021/04/29 06:02:59;;;;;;;;;;;;;;;9.90;53.72;100634.27;1816170;78;21292;-59
2021/04/29 06:05:28;;;;;;;;;;;;;;;9.92;52.81;100622.02;1818104;78;20214;-61
2021/04/29 06:08:00;;;;;;;;;;;;;;;9.90;53.00;100618.20;1815722;78;20161;-61
2021/04/29 06:10:29;;;;;;;;;;;;;;;9.93;52.84;100624.48;1819344;78;20510;-60
2021/04/29 06:12:57;;;;;;;;;;;;;;;9.97;52.98;100621.70;1813094;78;20239;-61
2021/04/29 06:15:24;;;;;;;;;;;;;;;10.05;52.56;100622.52;1822508;78;21193;-61
2021/04/29 06:17:52;;;;;;;;;;;;;;;10.11;52.28;100622.50;1817738;78;20281;-60
2021/04/29 06:20:20;;;;;;;;;;;;;;;10.21;51.18;100635.47;1817730;78;20212;-60
2021/04/29 06:22:48;;;;;;;;;;;;;;;10.27;50.89;100629.27;1822527;78;20248;-61
2021/04/29 06:25:17;;;;;;;;;;;;;;;10.34;50.08;100629.30;1820965;78;20262;-60
2021/04/29 06:27:47;;;;;;;;;;;;;;;10.40;49.92;100628.98;1819298;78;21189;-60
2021/04/29 06:30:19;;;;;;;;;;;;;;;10.48;50.00;100626.05;1822436;78;20255;-60
2021/04/29 06:32:47;;;;;;;;;;;;;;;10.60;49.81;100631.09;1822702;78;20243;-59
2021/04/29 06:35:14;;;;;;;;;;;;;;;10.75;49.00;100621.43;1817698;78;20134;-61
2021/04/29 06:37:42;;;;;;;;;;;;;;;10.85;48.31;100621.80;1822456;78;20293;-59
2021/04/29 06:40:12;;;;;;;;;;;;;;;10.93;47.44;100630.11;1822488;78;22343;-59
2021/04/29 06:42:41;;;;;;;;;;;;;;;11.03;47.00;100630.47;1817685;78;20460;-59
2021/04/29 06:45:10;;;;;;;;;;;;;;;11.08;46.36;100615.59;1822060;78;20141;-62
2021/04/29 06:47:39;;;;;;;;;;;;;;;11.10;46.20;100618.38;1820421;78;20206;-62
2021/04/29 06:50:09;;;;;;;;;;;;;;;11.15;46.13;100629.27;1819138;78;20210;-59
2021/04/29 06:52:37;;;;;;;;;;;;;;;11.22;45.29;100620.66;1821559;78;21263;-60
2021/04/29 06:55:06;;;;;;;;;;;;;;;11.26;45.50;100627.75;1798975;78;20243;-60
2021/04/29 06:57:34;;;;;;;;;;;;;;;11.28;45.50;100627.03;1813385;78;20476;-59
2021/04/29 07:00:03;;;;;;;;;;;;;;;11.25;45.25;100629.30;1820226;78;20279;-59
2021/04/29 07:02:31;;;;;;;;;;;;;;;11.18;45.24;100648.95;1820295;78;20240;-59
2021/04/29 07:05:01;;;;;;;;;;;;;;;11.15;45.63;100629.27;1817622;78;21420;-60
2021/04/29 07:07:29;;;;;;;;;;;;;;;11.17;45.65;100639.78;1823464;78;20265;-59
2021/04/29 07:09:57;;;;;;;;;;;;;;;11.21;45.53;100641.00;1822465;78;20132;-59
2021/04/29 07:12:25;;;;;;;;;;;;;;;11.23;45.25;100642.94;1820817;78;20186;-59
2021/04/29 07:14:53;;;;;;;;;;;;;;;11.23;44.94;100650.99;1820858;78;20280;-60
2021/04/29 07:17:20;;;;;;;;;;;;;;;11.21;45.17;100643.69;1795208;78;22191;-59
2021/04/29 07:19:50;;;;;;;;;;;;;;;11.22;45.43;100637.30;1820883;78;20282;-59
2021/04/29 07:22:18;;;;;;;;;;;;;;;11.27;45.52;100639.33;1820326;78;20209;-60
2021/04/29 07:24:45;;;;;;;;;;;;;;;11.37;45.25;100641.83;1794610;78;20133;-60
2021/04/29 07:27:13;;;;;;;;;;;;;;;11.47;45.00;100637.33;1824059;78;20111;-59
2021/04/29 07:29:43;;;;;;;;;;;;;;;11.53;44.88;100631.09;1797763;78;21203;-60
2021/04/29 07:32:11;;;;;;;;;;;;;;;11.63;44.81;100634.64;1818808;78;20109;-61
2021/04/29 07:34:39;;;;;;;;;;;;;;;11.74;44.22;100636.59;1821623;78;20157;-59
2021/04/29 07:37:07;;;;;;;;;;;;;;;11.87;44.21;100641.57;1813036;78;20147;-62
2021/04/29 07:39:36;;;;;;;;;;;;;;;11.98;43.86;100631.98;1798654;78;20233;-60
2021/04/29 07:42:05;;;;;;;;;;;;;;;12.06;43.60;100634.41;1821748;78;21204;-61
2021/04/29 07:44:32;;;;;;;;;;;;;;;12.19;43.12;100638.30;1818841;78;20298;-61
2021/04/29 07:47:01;;;;;;;;;;;;;;;12.28;42.47;100632.12;1823187;78;20236;-60
2021/04/29 07:49:30;;;;;;;;;;;;;;;12.36;41.89;100635.03;1817737;78;20149;-59
2021/04/29 07:51:58;;;;;;;;;;;;;;;12.40;42.24;100636.23;1824487;78;20210;-59
2021/04/29 07:54:26;;;;;;;;;;;;;;;12.47;41.36;100643.70;1822570;78;20687;-60
2021/04/29 07:56:54;;;;;;;;;;;;;;;12.55;41.19;100647.95;1820457;78;21880;-59
2021/04/29 07:59:21;;;;;;;;;;;;;;;12.62;41.05;100642.80;1820784;78;20732;-59
2021/04/29 08:01:50;;;;;;;;;;;;;;;12.67;41.13;100643.98;1820949;78;20129;-60
2021/04/29 08:04:17;;;;;;;;;;;;;;;12.63;40.76;100647.64;1822745;78;20221;-60
2021/04/29 08:06:46;;;;;;;;;;;;;;;12.60;40.90;100642.20;1822267;78;21186;-60
2021/04/29 08:09:14;;;;;;;;;;;;;;;12.56;40.94;100640.20;1793922;78;20233;-61
2021/04/29 08:11:42;;;;;;;;;;;;;;;12.58;41.80;100643.47;1794143;78;20503;-60
2021/04/29 08:14:10;;;;;;;;;;;;;;;12.71;41.28;100637.13;1823689;78;20297;-61
2021/04/29 08:16:37;;;;;;;;;;;;;;;12.82;41.31;100634.19;1794874;78;20507;-60
2021/04/29 08:19:07;;;;;;;;;;;;;;;12.88;41.16;100632.77;1819322;78;21384;-60
2021/04/29 08:21:37;;;;;;;;;;;;;;;12.92;41.08;100627.20;1819188;78;20157;-60
2021/04/29 08:24:05;;;;;;;;;;;;;;;12.99;41.12;100619.06;1821564;78;20228;-59
2021/04/29 08:26:33;;;;;;;;;;;;;;;13.08;40.23;100617.68;1824284;78;20544;-60
2021/04/29 08:29:01;;;;;;;;;;;;;;;13.19;39.50;100626.02;1820512;78;20285;-59
2021/04/29 08:31:29;;;;;;;;;;;;;;;13.23;38.62;100620.48;1822338;78;21909;-59
2021/04/29 08:33:57;;;;;;;;;;;;;;;13.20;39.59;100613.68;1815252;78;20304;-59
2021/04/29 08:36:29;;;;;;;;;;;;;;;13.25;38.73;100611.64;1818598;78;20574;-61
2021/04/29 08:38:54;;;;;;;;;;;;;;;13.34;39.46;100599.55;1823155;78;20133;-60
2021/04/29 08:41:22;;;;;;;;;;;;;;;13.51;39.56;100602.38;1769094;78;20281;-60
2021/04/29 08:43:50;;;;;;;;;;;;;;;13.66;39.54;100594.67;1820257;78;21190;-61
2021/04/29 08:46:19;;;;;;;;;;;;;;;13.83;39.58;100596.13;1820535;78;20149;-61
2021/04/29 08:48:49;;;;;;;;;;;;;;;14.03;39.22;100603.06;1821739;78;20220;-59
2021/04/29 08:51:17;;;;;;;;;;;;;;;14.17;38.56;100604.44;1821089;78;20202;-61
2021/04/29 08:53:47;;;;;;;;;;;;;;;14.17;38.97;100588.26;1818682;78;20145;-60
2021/04/29 08:56:20;;;;;;;;;;;;;;;14.22;38.44;100584.04;1819236;78;22120;-59
2021/04/29 08:58:47;;;;;;;;;;;;;;;14.26;38.40;100587.38;1822524;78;20124;-59
2021/04/29 09:01:15;;;;;;;;;;;;;;;14.29;38.41;100577.45;1822716;78;20159;-60
2021/04/29 09:03:49;;;;;;;;;;;;;;;14.32;38.31;100575.63;1795757;78;20252;-60
2021/04/29 09:06:17;;;;;;;;;;;;;;;14.38;39.07;100568.47;1822733;78;20489;-63
2021/04/29 09:08:47;;;;;;;;;;;;;;;14.53;38.48;100567.95;1794215;78;22263;-60
2021/04/29 09:11:17;;;;;;;;;;;;;;;14.65;37.72;100569.30;1820673;78;20153;-61
2021/04/29 09:14:01;;;;;;;;;;;;;;;14.65;37.88;100570.13;1818960;78;20237;-61
2021/04/29 09:16:45;;;;;;;;;;;;;;;14.60;37.69;100559.20;1816873;78;20144;-61
2021/04/29 09:19:18;;;;;;;;;;;;;;;14.54;37.96;100553.41;1815773;78;20224;-58
2021/04/29 09:21:47;;;;;;;;;;;;;;;14.53;39.07;100552.61;1820312;78;21195;-61
2021/04/29 09:24:14;;;;;;;;;;;;;;;14.56;38.22;100552.66;1822305;78;20336;-60
2021/04/29 09:26:42;;;;;;;;;;;;;;;14.56;38.44;100549.97;1817393;78;20184;-62
2021/04/29 09:29:15;;;;;;;;;;;;;;;14.60;38.11;100545.70;1818419;78;20328;-60
2021/04/29 09:31:44;;;;;;;;;;;;;;;14.67;37.66;100547.77;1817881;78;20413;-62
2021/04/29 09:34:14;;;;;;;;;;;;;;;14.75;39.29;100537.64;1817714;78;21133;-60
2021/04/29 09:36:43;;;;;;;;;;;;;;;14.84;38.56;100541.59;1820239;78;20160;-60
2021/04/29 09:39:12;;;;;;;;;;;;;;;14.93;37.79;100540.16;1696946;83;20296;-60
2021/04/29 09:41:50;;;;;;;;;;;;;;;14.98;36.65;100527.27;1697388;83;20211;-62
2021/04/29 09:44:26;;;;;;;;;;;;;;;15.06;37.31;100531.74;1827481;77;20326;-61
2021/04/29 09:46:59;;;;;;;;;;;;;;;15.05;37.51;100535.50;1798333;79;20131;-60
2021/04/29 09:49:32;;;;;;;;;;;;;;;15.15;38.10;100524.57;1802375;78;22063;-59
2021/04/29 09:52:06;;;;;;;;;;;;;;;15.25;37.16;100520.69;1656988;86;20251;-59
2021/04/29 09:54:36;;;;;;;;;;;;;;;15.31;36.93;100526.48;1656251;86;20208;-60
2021/04/29 09:57:10;;;;;;;;;;;;;;;15.37;37.65;100521.44;1657606;86;20518;-60
2021/04/29 09:59:48;;;;;;;;;;;;;;;15.49;36.91;100517.81;1820038;77;20249;-60
2021/04/29 10:02:15;;;;;;;;;;;;;;;15.42;36.78;100503.95;1816922;79;20176;-62
2021/04/29 10:04:43;;;;;;;;;;;;;;;15.36;36.81;100520.34;1818404;79;22276;-59
2021/04/29 10:07:15;;;;;;;;;;;;;;;15.22;36.46;100507.17;1748577;79;20138;-60
2021/04/29 10:09:43;;;;;;;;;;;;;;;15.12;36.65;100519.16;1769395;79;20173;-64
2021/04/29 10:12:13;;;;;;;;;;;;;;;15.05;36.77;100499.05;1769588;80;20176;-60
2021/04/29 10:14:43;;;;;;;;;;;;;;;14.99;36.97;100497.87;1769753;80;20177;-62
2021/04/29 10:17:14;;;;;;;;;;;;;;;14.96;37.50;100492.43;1766781;80;21301;-60
2021/04/29 10:19:44;;;;;;;;;;;;;;;14.98;37.63;100494.87;1769006;80;20147;-59
2021/04/29 10:22:15;;;;;;;;;;;;;;;15.01;37.17;100492.50;1681111;84;20175;-60
2021/04/29 10:24:50;;;;;;;;;;;;;;;15.12;36.77;100497.55;1826644;77;20233;-60
2021/04/29 10:27:20;;;;;;;;;;;;;;;15.01;36.64;100492.50;1802737;79;20113;-60
2021/04/29 10:29:48;;;;;;;;;;;;;;;14.95;36.86;100488.63;1687883;85;21220;-59
2021/04/29 10:32:16;;;;;;;;;;;;;;;14.92;37.00;100469.68;1688354;85;21112;-60
2021/04/29 10:34:48;;;;;;;;;;;;;;;14.95;38.09;100488.63;1687716;85;20531;-59
2021/04/29 10:37:20;;;;;;;;;;;;;;;15.00;36.83;100489.53;1617736;88;20279;-61
2021/04/29 10:39:56;;;;;;;;;;;;;;;14.98;37.19;100472.74;1837278;77;20298;-60
2021/04/29 10:42:25;;;;;;;;;;;;;;;14.95;37.49;100473.78;1742708;81;20243;-61
2021/04/29 10:44:59;;;;;;;;;;;;;;;15.01;37.65;100471.45;1743571;81;22135;-60
2021/04/29 10:47:29;;;;;;;;;;;;;;;15.11;37.51;100460.00;1740364;81;20167;-60
2021/04/29 10:50:13;;;;;;;;;;;;;;;15.24;37.82;100462.36;1823110;77;20184;-61
2021/04/29 10:52:59;;;;;;;;;;;;;;;15.30;37.39;100456.52;1812158;78;20164;-59
2021/04/29 10:55:32;;;;;;;;;;;;;;;15.38;37.43;100460.94;1808849;78;21396;-59
2021/04/29 10:57:59;;;;;;;;;;;;;;;15.39;37.59;100457.17;1808472;78;20143;-60
2021/04/29 11:00:28;;;;;;;;;;;;;;;15.39;37.47;100453.13;1802742;78;20198;-59
2021/04/29 11:02:59;;;;;;;;;;;;;;;15.40;37.71;100449.37;1807429;78;20548;-60
2021/04/29 11:05:27;;;;;;;;;;;;;;;15.45;37.70;100451.86;1797280;78;20228;-60
2021/04/29 11:07:57;;;;;;;;;;;;;;;15.39;37.48;100436.92;1771584;80;22283;-62
2021/04/29 11:10:26;;;;;;;;;;;;;;;15.36;37.97;100440.12;1754911;80;20594;-60
2021/04/29 11:12:55;;;;;;;;;;;;;;;15.38;39.16;100455.53;1767509;80;20202;-60
2021/04/29 11:15:29;;;;;;;;;;;;;;;15.27;39.52;100438.08;1775323;79;20768;-59
2021/04/29 11:18:06;;;;;;;;;;;;;;;15.11;39.65;100428.95;1773352;80;20478;-63
2021/04/29 11:20:42;;;;;;;;;;;;;;;14.96;39.93;100435.74;1771915;80;21308;-61
2021/04/29 11:23:10;;;;;;;;;;;;;;;14.78;40.28;100438.67;1761841;80;20290;-61
2021/04/29 11:25:39;;;;;;;;;;;;;;;14.65;40.84;100439.79;1773207;80;20124;-60
2021/04/29 11:28:07;;;;;;;;;;;;;;;14.57;40.88;100448.27;1774820;80;20339;-62
2021/04/29 11:30:43;;;;;;;;;;;;;;;14.47;41.21;100426.80;1829026;77;20221;-61
2021/04/29 11:33:12;;;;;;;;;;;;;;;14.29;41.45;100432.39;1819174;79;20141;-63
2021/04/29 11:35:43;;;;;;;;;;;;;;;14.19;42.36;100423.56;1768262;79;22239;-61
2021/04/29 11:38:12;;;;;;;;;;;;;;;14.20;42.52;100428.72;1818974;79;20141;-60
2021/04/29 11:40:40;;;;;;;;;;;;;;;14.23;41.97;100422.03;1818833;79;20145;-61
2021/04/29 11:43:08;;;;;;;;;;;;;;;14.24;41.74;100419.63;1785548;79;20153;-60
2021/04/29 11:45:41;;;;;;;;;;;;;;;14.22;41.68;100414.19;1818980;79;20157;-60
2021/04/29 11:48:08;;;;;;;;;;;;;;;14.14;41.80;100412.16;1660352;86;21292;-60
2021/04/29 11:50:44;;;;;;;;;;;;;;;14.06;41.61;100409.87;1660860;86;20152;-60
2021/04/29 11:53:17;;;;;;;;;;;;;;;14.06;41.88;100407.68;1660812;86;20268;-59
2021/04/29 11:55:50;;;;;;;;;;;;;;;14.09;41.90;100400.45;1661026;86;20267;-60
2021/04/29 11:58:19;;;;;;;;;;;;;;;14.16;42.15;100399.79;1660946;86;20350;-60
2021/04/29 12:00:55;;;;;;;;;;;;;;;14.27;41.81;100389.48;1822399;77;20180;-60
2021/04/29 12:03:25;;;;;;;;;;;;;;;14.27;41.48;100392.19;1670438;84;20241;-61
2021/04/29 12:05:54;;;;;;;;;;;;;;;14.32;40.95;100387.41;1675211;85;21215;-61
2021/04/29 12:08:32;;;;;;;;;;;;;;;14.32;41.01;100386.88;1672988;85;20428;-63
2021/04/29 12:11:07;;;;;;;;;;;;;;;14.32;41.20;100385.52;1669753;85;20146;-62
2021/04/29 12:13:51;;;;;;;;;;;;;;;14.35;41.36;100393.66;1668569;85;20268;-61
2021/04/29 12:16:23;;;;;;;;;;;;;;;14.36;40.74;100378.59;1673322;85;20189;-62
2021/04/29 12:18:53;;;;;;;;;;;;;;;14.26;41.02;100378.41;1672603;85;22297;-61
2021/04/29 12:21:30;;;;;;;;;;;;;;;14.22;41.36;100373.74;1802837;77;20259;-60
2021/04/29 12:24:08;;;;;;;;;;;;;;;14.15;41.42;100382.00;1800446;79;20243;-59
2021/04/29 12:26:40;;;;;;;;;;;;;;;14.17;41.50;100373.13;1802874;79;21201;-60
2021/04/29 12:29:12;;;;;;;;;;;;;;;14.17;41.69;100377.98;1801370;79;20223;-59
2021/04/29 12:31:55;;;;;;;;;;;;;;;14.15;41.75;100373.37;1803300;79;20600;-61
2021/04/29 12:34:24;;;;;;;;;;;;;;;14.19;41.69;100372.34;1806186;79;20132;-61
2021/04/29 12:36:56;;;;;;;;;;;;;;;14.26;41.32;100370.31;1799854;79;20184;-60
2021/04/29 12:39:27;;;;;;;;;;;;;;;14.31;40.98;100370.94;1795652;79;21364;-60
2021/04/29 12:41:59;;;;;;;;;;;;;;;14.30;41.19;100370.67;1800101;78;20151;-60
2021/04/29 12:44:34;;;;;;;;;;;;;;;14.28;41.08;100372.27;1802504;79;20131;-59
2021/04/29 12:47:02;;;;;;;;;;;;;;;14.25;40.95;100372.75;1801043;79;20222;-60
2021/04/29 12:49:31;;;;;;;;;;;;;;;14.21;40.74;100372.94;1800272;79;20297;-59
2021/04/29 12:52:09;;;;;;;;;;;;;;;14.19;41.01;100371.83;1801720;79;21418;-61
2021/04/29 12:54:38;;;;;;;;;;;;;;;14.20;40.73;100367.25;1669720;85;20242;-59